Time;durP1;ratioP1;P1;durP2;ratioP2;P2;SDS_P1;SDS_P2;PMS_P1;PMS_P2;Temp;Humidity;BMP_temperature;BMP_pressure;BME280_temperature;BME280_humidity;BME280_pressure;Samples;Min_cycle;Max_cycle;Signal;HPM_P1;HPM_P2
2023/04/22 00:01:46;;;;;;;8.75;2.10;;;34.40;18.70;;;;;;5068442;28;20035;-60
2023/04/22 00:04:13;;;;;;;5.20;1.95;;;34.40;19.20;;;;;;5069158;28;20037;-59
2023/04/22 00:06:40;;;;;;;15.50;2.00;;;34.30;18.70;;;;;;5069184;28;20479;-59
2023/04/22 00:09:06;;;;;;;11.40;2.38;;;34.40;18.90;;;;;;5068378;28;20129;-59
2023/04/22 00:11:32;;;;;;;10.55;2.38;;;34.30;18.80;;;;;;5070068;28;20031;-60
2023/04/22 00:13:59;;;;;;;11.00;1.70;;;34.20;18.80;;;;;;5070507;28;20127;-61
2023/04/22 00:16:25;;;;;;;4.22;1.55;;;34.10;18.80;;;;;;5069024;28;20045;-60
2023/04/22 00:18:52;;;;;;;5.78;1.60;;;34.00;19.20;;;;;;5072278;28;20080;-60
2023/04/22 00:21:18;;;;;;;5.75;1.77;;;33.90;19.00;;;;;;5070955;28;20055;-61
2023/04/22 00:23:46;;;;;;;7.90;2.05;;;33.80;18.60;;;;;;5075278;28;20118;-60
2023/04/22 00:26:12;;;;;;;6.35;1.55;;;33.80;18.50;;;;;;5071000;28;20057;-60
2023/04/22 00:28:39;;;;;;;7.05;1.70;;;33.80;18.30;;;;;;5078960;28;20036;-60
2023/04/22 00:31:06;;;;;;;11.70;1.73;;;33.70;18.70;;;;;;5070255;28;20031;-60
2023/04/22 00:33:32;;;;;;;4.32;1.70;;;33.70;18.50;;;;;;5070191;28;20061;-59
2023/04/22 00:35:58;;;;;;;5.60;1.60;;;33.70;18.60;;;;;;5069637;28;20038;-59
2023/04/22 00:38:25;;;;;;;10.73;1.83;;;33.70;19.00;;;;;;5069676;28;20112;-59
2023/04/22 00:40:51;;;;;;;10.70;2.13;;;33.70;19.10;;;;;;5074660;28;20053;-59
2023/04/22 00:43:17;;;;;;;5.80;1.42;;;33.60;19.70;;;;;;5072901;28;20053;-61
2023/04/22 00:45:45;;;;;;;9.50;1.88;;;33.40;19.80;;;;;;5063676;28;20060;-61
2023/04/22 00:48:12;;;;;;;7.88;1.95;;;33.40;19.90;;;;;;5067808;28;20038;-62
2023/04/22 00:50:39;;;;;;;7.68;1.52;;;33.30;19.80;;;;;;5067652;28;20044;-59
2023/04/22 00:53:05;;;;;;;7.57;2.03;;;33.30;19.60;;;;;;5065873;28;20036;-61
2023/04/22 00:55:32;;;;;;;6.30;1.83;;;33.20;19.40;;;;;;5067723;28;20055;-61
2023/04/22 00:58:01;;;;;;;7.13;1.70;;;33.00;19.00;;;;;;5069204;28;20047;-60
2023/04/22 01:00:28;;;;;;;9.50;1.80;;;33.10;19.10;;;;;;5067660;28;20141;-60
2023/04/22 01:02:55;;;;;;;12.23;1.70;;;33.00;19.70;;;;;;5070940;28;20061;-61
2023/04/22 01:05:22;;;;;;;10.00;2.08;;;33.00;19.80;;;;;;5071930;28;20475;-60
2023/04/22 01:07:50;;;;;;;8.88;1.63;;;32.90;19.80;;;;;;5070328;28;20378;-60
2023/04/22 01:10:17;;;;;;;9.15;1.73;;;32.80;19.70;;;;;;5072173;28;20104;-61
2023/04/22 01:12:43;;;;;;;10.63;1.80;;;32.80;19.80;;;;;;5076540;28;20140;-59
2023/04/22 01:15:10;;;;;;;9.35;1.73;;;32.70;20.10;;;;;;5071902;28;20046;-60
2023/04/22 01:17:37;;;;;;;10.55;1.85;;;32.60;20.20;;;;;;5067064;28;20071;-61
2023/04/22 01:20:04;;;;;;;5.35;1.67;;;32.60;20.10;;;;;;5074892;28;20057;-61
2023/04/22 01:22:35;;;;;;;9.13;2.17;;;32.40;20.10;;;;;;5075425;28;20043;-60
2023/04/22 01:25:02;;;;;;;11.45;1.95;;;32.40;19.70;;;;;;5070715;28;20131;-60
2023/04/22 01:27:29;;;;;;;8.57;1.92;;;32.40;19.70;;;;;;5072335;28;20056;-59
2023/04/22 01:29:56;;;;;;;9.45;1.77;;;32.30;19.40;;;;;;5072128;28;20132;-61
2023/04/22 01:32:22;;;;;;;7.35;1.75;;;32.20;19.70;;;;;;5067217;28;20408;-61
2023/04/22 01:34:49;;;;;;;4.88;1.63;;;32.10;19.50;;;;;;5072963;28;20409;-60
2023/04/22 01:37:16;;;;;;;9.80;1.65;;;32.10;19.50;;;;;;5073125;28;20040;-61
2023/04/22 01:39:43;;;;;;;7.82;1.58;;;31.90;19.90;;;;;;5084167;28;20073;-61
2023/04/22 01:42:10;;;;;;;8.10;1.65;;;31.80;20.40;;;;;;5068105;28;20053;-58
2023/04/22 01:44:37;;;;;;;3.33;1.48;;;31.70;20.50;;;;;;5065214;28;20044;-58
2023/04/22 01:47:04;;;;;;;17.25;2.40;;;31.50;20.90;;;;;;5075089;28;20078;-60
2023/04/22 01:49:30;;;;;;;9.93;1.83;;;31.40;21.10;;;;;;5071773;28;20041;-59
2023/04/22 01:51:57;;;;;;;10.45;2.10;;;31.30;21.20;;;;;;5068808;28;20066;-60
2023/04/22 01:54:24;;;;;;;12.05;1.83;;;31.20;20.60;;;;;;5075246;28;20533;-61
2023/04/22 01:56:55;;;;;;;8.15;1.83;;;31.20;20.80;;;;;;5073198;28;20063;-60
2023/04/22 01:59:21;;;;;;;11.20;2.03;;;31.10;21.20;;;;;;5071792;28;20084;-60
2023/04/22 02:01:48;;;;;;;8.60;2.42;;;31.00;21.50;;;;;;5071332;28;20055;-58
2023/04/22 02:04:14;;;;;;;12.38;1.98;;;30.80;20.70;;;;;;5075359;28;20450;-61
2023/04/22 02:06:40;;;;;;;7.47;2.22;;;30.80;21.30;;;;;;5072510;28;20152;-60
2023/04/22 02:09:07;;;;;;;12.93;2.95;;;30.70;21.10;;;;;;5076612;28;20100;-59
2023/04/22 02:11:34;;;;;;;8.23;2.33;;;30.60;21.10;;;;;;5077472;28;20125;-60
2023/04/22 02:14:00;;;;;;;10.90;2.60;;;30.50;21.00;;;;;;5073436;28;21025;-60
2023/04/22 02:16:27;;;;;;;15.60;2.90;;;30.50;21.40;;;;;;5069032;28;20050;-61
2023/04/22 02:18:53;;;;;;;11.40;2.67;;;30.40;21.60;;;;;;5070756;28;20063;-60
2023/04/22 02:21:19;;;;;;;15.70;3.40;;;30.30;21.60;;;;;;5070875;28;20440;-60
2023/04/22 02:23:46;;;;;;;9.95;3.42;;;30.20;22.10;;;;;;5071684;28;20063;-61
2023/04/22 02:26:12;;;;;;;18.10;3.80;;;30.10;22.10;;;;;;5071807;28;20536;-60
2023/04/22 02:28:40;;;;;;;17.60;3.92;;;29.90;22.20;;;;;;5071790;28;20076;-60
2023/04/22 02:31:06;;;;;;;22.95;3.45;;;29.80;22.70;;;;;;5073017;28;20111;-61
2023/04/22 02:33:33;;;;;;;18.35;3.88;;;29.60;22.80;;;;;;5072636;28;20077;-61
2023/04/22 02:35:59;;;;;;;18.05;3.83;;;29.50;22.90;;;;;;5068900;28;20063;-59
2023/04/22 02:38:25;;;;;;;26.73;3.42;;;29.40;23.40;;;;;;5070940;28;20451;-60
2023/04/22 02:40:52;;;;;;;16.08;3.10;;;29.30;23.70;;;;;;5071957;28;20160;-60
2023/04/22 02:43:18;;;;;;;29.63;4.25;;;29.10;24.10;;;;;;5072254;28;20051;-56
2023/04/22 02:45:44;;;;;;;26.58;3.97;;;29.00;23.70;;;;;;5071582;28;20075;-57
2023/04/22 02:48:11;;;;;;;33.15;4.10;;;28.90;24.10;;;;;;5073937;28;20079;-59
2023/04/22 02:50:37;;;;;;;19.60;4.15;;;28.70;24.10;;;;;;5071070;28;20221;-59
2023/04/22 02:53:03;;;;;;;29.67;4.65;;;28.60;24.50;;;;;;5078212;28;20077;-59
2023/04/22 02:55:30;;;;;;;16.50;4.53;;;28.40;24.50;;;;;;5074226;28;20138;-60
2023/04/22 02:57:56;;;;;;;26.58;5.38;;;28.30;24.40;;;;;;5075790;28;20434;-59
2023/04/22 03:00:23;;;;;;;26.40;6.20;;;28.30;24.10;;;;;;5071219;28;20549;-61
2023/04/22 03:02:49;;;;;;;34.53;6.40;;;28.20;24.90;;;;;;5077575;28;20078;-60
2023/04/22 03:05:15;;;;;;;27.05;6.18;;;28.10;24.60;;;;;;5074995;28;20083;-59
2023/04/22 03:07:43;;;;;;;31.25;6.35;;;28.10;24.50;;;;;;5079043;28;20060;-58
2023/04/22 03:10:09;;;;;;;32.38;6.07;;;27.90;25.30;;;;;;5073507;28;20076;-59
2023/04/22 03:12:36;;;;;;;29.30;6.90;;;27.90;24.80;;;;;;5077311;28;20058;-60
2023/04/22 03:15:02;;;;;;;33.00;6.38;;;27.70;24.40;;;;;;5071968;28;20397;-59
2023/04/22 03:17:29;;;;;;;45.97;7.53;;;27.70;24.80;;;;;;5076183;28;20062;-58
2023/04/22 03:19:55;;;;;;;32.38;7.30;;;27.60;25.30;;;;;;5077679;28;20434;-59
2023/04/22 03:22:21;;;;;;;26.52;6.38;;;27.60;26.00;;;;;;5077514;28;20060;-59
2023/04/22 03:24:48;;;;;;;31.77;5.72;;;27.50;26.40;;;;;;5071082;28;20067;-58
2023/04/22 03:27:14;;;;;;;37.22;5.57;;;27.40;26.90;;;;;;5072023;28;20075;-59
2023/04/22 03:29:41;;;;;;;22.30;3.70;;;27.40;27.30;;;;;;5072830;28;20076;-59
2023/04/22 03:32:07;;;;;;;16.48;4.00;;;27.30;26.90;;;;;;5078887;28;20058;-59
2023/04/22 03:34:33;;;;;;;25.85;3.58;;;27.20;26.90;;;;;;5068943;28;20471;-59
2023/04/22 03:37:00;;;;;;;21.75;4.05;;;27.10;26.60;;;;;;5071027;28;20494;-60
2023/04/22 03:39:26;;;;;;;25.33;4.53;;;27.10;26.70;;;;;;5076286;28;20179;-59
2023/04/22 03:41:53;;;;;;;26.90;4.13;;;27.00;26.20;;;;;;5079547;28;20451;-59
2023/04/22 03:44:19;;;;;;;27.23;5.00;;;27.00;27.50;;;;;;5069965;28;20082;-63
2023/04/22 03:46:46;;;;;;;26.52;5.38;;;26.80;27.30;;;;;;5071198;28;20105;-59
2023/04/22 03:49:12;;;;;;;54.65;24.88;;;26.70;27.10;;;;;;5070166;28;20095;-60
2023/04/22 03:51:38;;;;;;;61.78;31.27;;;26.60;26.70;;;;;;5076750;28;20185;-60
2023/04/22 03:54:05;;;;;;;70.28;27.23;;;26.50;27.40;;;;;;5075829;28;20079;-59
2023/04/22 03:56:32;;;;;;;44.95;19.23;;;26.40;28.20;;;;;;5070665;28;20523;-60
2023/04/22 03:58:58;;;;;;;41.67;13.73;;;26.40;28.80;;;;;;5069475;28;20082;-62
2023/04/22 04:01:25;;;;;;;33.20;11.02;;;26.30;28.50;;;;;;5070175;28;20091;-59
2023/04/22 04:03:51;;;;;;;38.08;9.40;;;26.20;27.90;;;;;;5068384;28;20075;-60
2023/04/22 04:06:18;;;;;;;38.63;9.43;;;26.10;28.50;;;;;;5066982;28;20092;-61
2023/04/22 04:08:45;;;;;;;41.60;9.52;;;26.10;27.80;;;;;;5072627;28;20074;-58
2023/04/22 04:11:11;;;;;;;40.90;9.00;;;26.00;27.80;;;;;;5071712;28;20062;-59
2023/04/22 04:13:37;;;;;;;37.35;9.13;;;26.00;28.80;;;;;;5069162;28;20083;-60
2023/04/22 04:16:04;;;;;;;29.98;8.30;;;25.90;29.40;;;;;;5069435;28;20162;-60
2023/04/22 04:18:31;;;;;;;53.63;10.25;;;25.80;29.90;;;;;;5073176;28;20440;-59
2023/04/22 04:20:57;;;;;;;42.97;9.18;;;25.70;29.20;;;;;;5072578;28;20506;-60
2023/04/22 04:23:24;;;;;;;47.47;10.32;;;25.70;29.20;;;;;;5068443;28;20078;-60
2023/04/22 04:25:50;;;;;;;40.67;10.40;;;25.70;29.50;;;;;;5071817;28;20079;-60
2023/04/22 04:28:18;;;;;;;52.45;11.27;;;25.70;29.50;;;;;;5067141;28;20193;-60
2023/04/22 04:30:44;;;;;;;54.15;10.82;;;25.60;29.50;;;;;;5066073;28;20100;-59
2023/04/22 04:33:11;;;;;;;72.05;14.45;;;25.50;29.90;;;;;;5066495;28;20086;-60
2023/04/22 04:35:37;;;;;;;70.78;16.55;;;25.40;29.90;;;;;;5067472;28;20079;-59
2023/04/22 04:38:05;;;;;;;71.15;16.60;;;25.40;29.70;;;;;;5076189;28;20089;-60
2023/04/22 04:40:33;;;;;;;75.55;15.05;;;25.30;29.90;;;;;;5071074;28;20075;-60
2023/04/22 04:43:01;;;;;;;88.25;16.08;;;25.20;31.50;;;;;;5069025;28;20109;-59
2023/04/22 04:45:28;;;;;;;69.40;16.92;;;25.10;30.00;;;;;;5069189;28;20173;-59
2023/04/22 04:47:55;;;;;;;68.20;15.70;;;25.10;31.00;;;;;;5071264;28;20576;-61
2023/04/22 04:50:21;;;;;;;60.03;15.70;;;25.00;30.20;;;;;;5067218;28;20094;-59
2023/04/22 04:52:48;;;;;;;59.35;14.73;;;25.00;31.20;;;;;;5068854;28;20070;-61
2023/04/22 04:55:15;;;;;;;63.40;16.42;;;24.90;30.80;;;;;;5070991;28;20080;-61
2023/04/22 04:57:44;;;;;;;62.03;15.57;;;24.90;30.80;;;;;;5068847;28;20117;-58
2023/04/22 05:00:12;;;;;;;78.43;18.45;;;24.90;31.20;;;;;;5068896;28;20555;-60
2023/04/22 05:02:39;;;;;;;60.83;15.63;;;24.90;31.20;;;;;;5069676;28;20093;-61
2023/04/22 05:05:07;;;;;;;64.72;16.20;;;24.80;30.90;;;;;;5070476;28;20074;-61
2023/04/22 05:07:33;;;;;;;52.03;14.82;;;24.70;30.80;;;;;;5075268;28;20593;-60
2023/04/22 05:10:00;;;;;;;64.97;15.95;;;24.70;30.90;;;;;;5069708;28;20076;-60
2023/04/22 05:12:26;;;;;;;65.85;16.13;;;24.70;32.60;;;;;;5069915;28;20199;-58
2023/04/22 05:14:53;;;;;;;67.53;16.92;;;24.60;32.60;;;;;;5071184;28;20091;-61
2023/04/22 05:17:20;;;;;;;63.20;16.65;;;24.50;33.70;;;;;;5069677;28;20076;-62
2023/04/22 05:19:46;;;;;;;74.68;17.95;;;24.50;34.30;;;;;;5066262;28;20079;-59
2023/04/22 05:22:13;;;;;;;72.32;18.63;;;24.30;33.30;;;;;;5069340;28;20110;-61
2023/04/22 05:24:39;;;;;;;64.03;18.67;;;24.30;34.10;;;;;;5070344;28;20144;-61
2023/04/22 05:27:06;;;;;;;76.43;17.58;;;24.30;34.70;;;;;;5069840;28;20090;-64
2023/04/22 05:29:33;;;;;;;74.40;18.70;;;24.30;34.10;;;;;;5068945;28;20554;-61
2023/04/22 05:31:59;;;;;;;66.47;17.58;;;24.20;34.10;;;;;;5071585;28;20162;-62
2023/04/22 05:34:25;;;;;;;77.70;17.60;;;24.10;35.20;;;;;;5065166;28;20074;-60
2023/04/22 05:36:52;;;;;;;63.35;17.35;;;24.10;34.40;;;;;;5068614;28;20175;-61
2023/04/22 05:39:19;;;;;;;94.78;19.13;;;24.00;34.60;;;;;;5068025;28;20109;-61
2023/04/22 05:41:45;;;;;;;67.68;16.60;;;24.00;34.60;;;;;;5070791;28;20607;-61
2023/04/22 05:44:12;;;;;;;73.35;18.52;;;24.00;35.10;;;;;;5072480;28;20098;-61
2023/04/22 05:46:38;;;;;;;72.15;18.92;;;23.90;35.20;;;;;;5072466;28;20152;-62
2023/04/22 05:49:05;;;;;;;67.40;19.50;;;23.90;35.40;;;;;;5072677;28;20059;-61
2023/04/22 05:51:31;;;;;;;74.55;19.55;;;23.90;34.80;;;;;;5072788;28;20091;-58
2023/04/22 05:53:58;;;;;;;72.38;17.90;;;23.80;34.80;;;;;;5071013;28;20068;-59
2023/04/22 05:56:24;;;;;;;85.00;17.90;;;23.70;36.20;;;;;;5074176;28;20513;-60
2023/04/22 05:58:50;;;;;;;80.22;18.48;;;23.70;36.20;;;;;;5075119;28;20115;-59
2023/04/22 06:01:17;;;;;;;73.63;18.75;;;23.70;36.20;;;;;;5073465;28;20072;-61
2023/04/22 06:03:43;;;;;;;62.50;16.70;;;23.70;34.80;;;;;;5070930;28;20106;-59
2023/04/22 06:06:10;;;;;;;85.53;17.40;;;23.70;35.00;;;;;;5074567;28;20551;-60
2023/04/22 06:08:36;;;;;;;61.72;15.80;;;23.70;34.90;;;;;;5071041;28;20078;-60
2023/04/22 06:11:02;;;;;;;83.00;18.42;;;23.70;34.30;;;;;;5069801;28;20125;-58
2023/04/22 06:13:29;;;;;;;76.93;17.90;;;23.60;36.10;;;;;;5076519;28;20123;-59
2023/04/22 06:15:55;;;;;;;72.15;16.52;;;23.50;36.10;;;;;;5073420;28;20543;-59
2023/04/22 06:18:22;;;;;;;85.40;18.13;;;23.50;35.60;;;;;;5080570;28;20072;-60
2023/04/22 06:20:48;;;;;;;87.97;18.17;;;23.50;36.40;;;;;;5072916;28;20149;-61
2023/04/22 06:23:14;;;;;;;74.20;17.65;;;23.40;34.80;;;;;;5085188;28;20078;-59
2023/04/22 06:25:41;;;;;;;95.05;18.13;;;23.40;36.00;;;;;;5072590;28;20172;-58
2023/04/22 06:28:07;;;;;;;75.18;17.80;;;23.50;35.40;;;;;;5070007;28;20095;-60
2023/04/22 06:30:33;;;;;;;81.15;16.95;;;23.50;36.30;;;;;;5068835;28;20067;-59
2023/04/22 06:33:00;;;;;;;82.50;18.70;;;23.40;37.50;;;;;;5076992;28;20083;-60
2023/04/22 06:35:26;;;;;;;87.13;18.95;;;23.40;37.00;;;;;;5070479;28;20150;-59
2023/04/22 06:37:53;;;;;;;68.28;17.08;;;23.30;36.30;;;;;;5077773;28;20099;-60
2023/04/22 06:40:19;;;;;;;79.85;18.67;;;23.30;36.40;;;;;;5074778;28;20135;-59
2023/04/22 06:42:46;;;;;;;76.78;17.70;;;23.20;36.70;;;;;;5070230;28;20439;-59
2023/04/22 06:45:12;;;;;;;66.35;18.10;;;23.20;36.40;;;;;;5069392;28;20233;-59
2023/04/22 06:47:41;;;;;;;71.82;18.88;;;23.20;37.70;;;;;;5080496;28;20103;-57
2023/04/22 06:50:09;;;;;;;95.90;21.65;;;23.10;37.60;;;;;;5076855;28;20087;-58
2023/04/22 06:52:35;;;;;;;87.25;21.38;;;23.10;36.60;;;;;;5072487;28;20134;-59
2023/04/22 06:55:02;;;;;;;75.40;22.63;;;23.20;37.10;;;;;;5068687;28;20075;-61
2023/04/22 06:57:29;;;;;;;83.65;24.50;;;23.10;37.70;;;;;;5068079;28;20420;-60
2023/04/22 06:59:56;;;;;;;80.95;24.10;;;23.10;37.50;;;;;;5068170;28;20210;-60
2023/04/22 07:02:22;;;;;;;92.80;28.23;;;23.00;37.90;;;;;;5070456;28;20147;-59
2023/04/22 07:04:49;;;;;;;104.28;36.92;;;23.00;37.10;;;;;;5068645;28;20104;-58
2023/04/22 07:07:15;;;;;;;108.13;40.15;;;22.90;36.50;;;;;;5070862;28;20112;-59
2023/04/22 07:09:41;;;;;;;95.95;38.40;;;23.00;36.70;;;;;;5073294;28;20493;-57
2023/04/22 07:12:08;;;;;;;105.28;41.83;;;23.00;36.80;;;;;;5071125;28;20121;-60
2023/04/22 07:14:34;;;;;;;122.75;43.13;;;23.00;37.70;;;;;;5067633;28;20083;-61
2023/04/22 07:17:01;;;;;;;117.22;43.45;;;23.00;35.60;;;;;;5067949;28;20128;-60
2023/04/22 07:19:27;;;;;;;108.35;43.67;;;23.00;35.20;;;;;;5068414;28;20103;-60
2023/04/22 07:21:54;;;;;;;103.45;41.78;;;22.90;35.70;;;;;;5068322;28;20129;-59
2023/04/22 07:24:20;;;;;;;107.05;40.97;;;22.80;34.80;;;;;;5072908;28;20079;-57
2023/04/22 07:26:46;;;;;;;92.35;35.35;;;22.80;34.30;;;;;;5067289;28;20080;-60
2023/04/22 07:29:13;;;;;;;89.10;32.17;;;22.80;34.10;;;;;;5068447;28;20060;-59
2023/04/22 07:31:39;;;;;;;77.45;29.15;;;22.80;36.70;;;;;;5076731;28;20072;-59
2023/04/22 07:34:05;;;;;;;81.90;26.98;;;22.80;35.50;;;;;;5068759;28;20120;-60
2023/04/22 07:36:32;;;;;;;84.43;25.40;;;22.80;36.20;;;;;;5068495;28;20076;-58
2023/04/22 07:38:59;;;;;;;74.20;23.13;;;22.80;34.70;;;;;;5069837;28;20087;-60
2023/04/22 07:41:25;;;;;;;77.13;22.08;;;22.70;34.40;;;;;;5066977;28;20095;-60
2023/04/22 07:43:51;;;;;;;75.50;20.58;;;22.70;34.10;;;;;;5069936;28;20088;-57
2023/04/22 07:46:18;;;;;;;76.25;19.25;;;22.70;36.10;;;;;;5067246;28;20139;-59
2023/04/22 07:48:44;;;;;;;86.43;18.67;;;22.60;35.70;;;;;;5068398;28;20116;-61
2023/04/22 07:51:11;;;;;;;64.65;16.50;;;22.60;34.80;;;;;;5068085;28;20455;-60
2023/04/22 07:53:37;;;;;;;79.07;14.40;;;22.60;34.20;;;;;;5067620;28;20104;-60
2023/04/22 07:56:04;;;;;;;61.28;14.93;;;22.60;34.10;;;;;;5073183;28;20083;-60
2023/04/22 07:58:30;;;;;;;55.90;12.75;;;22.70;34.40;;;;;;5073749;28;20087;-60
2023/04/22 08:00:56;;;;;;;64.15;12.70;;;22.70;33.80;;;;;;5072787;28;20074;-59
2023/04/22 08:03:23;;;;;;;73.32;13.68;;;22.60;32.50;;;;;;5069865;28;20072;-48
2023/04/22 08:05:49;;;;;;;51.97;12.02;;;22.70;32.60;;;;;;5075849;28;20092;-59
2023/04/22 08:08:16;;;;;;;40.83;10.32;;;22.70;34.20;;;;;;5082147;28;20075;-59
2023/04/22 08:10:42;;;;;;;42.00;9.82;;;22.70;33.00;;;;;;5069735;28;20091;-60
2023/04/22 08:13:09;;;;;;;37.72;9.15;;;22.70;32.80;;;;;;5073343;28;20087;-60
2023/04/22 08:15:35;;;;;;;49.40;9.93;;;22.70;32.60;;;;;;5078991;28;20075;-60
2023/04/22 08:18:02;;;;;;;46.30;9.90;;;22.70;33.00;;;;;;5068461;28;20556;-60
2023/04/22 08:20:28;;;;;;;47.60;9.30;;;22.70;33.70;;;;;;5069894;28;20079;-63
2023/04/22 08:22:59;;;;;;;44.65;9.05;;;22.70;32.70;;;;;;5076880;28;20542;-60
2023/04/22 08:25:26;;;;;;;46.30;10.98;;;22.70;34.40;;;;;;5073548;28;20187;-56
2023/04/22 08:27:53;;;;;;;43.67;9.20;;;22.70;34.30;;;;;;5073688;28;20067;-59
2023/04/22 08:30:19;;;;;;;42.38;9.30;;;22.60;34.40;;;;;;5070053;28;20560;-59
2023/04/22 08:32:46;;;;;;;52.78;12.98;;;22.50;36.00;;;;;;5068907;28;20072;-62
2023/04/22 08:35:12;;;;;;;49.85;12.90;;;22.50;34.90;;;;;;5069607;28;20075;-60
2023/04/22 08:37:40;;;;;;;41.30;13.15;;;22.60;34.20;;;;;;5067950;28;20163;-58
2023/04/22 08:40:07;;;;;;;51.83;12.02;;;22.50;33.90;;;;;;5069108;28;20091;-60
2023/04/22 08:42:34;;;;;;;47.75;10.65;;;22.50;34.10;;;;;;5067675;28;20107;-60
2023/04/22 08:45:02;;;;;;;48.92;11.38;;;22.50;34.40;;;;;;5066695;28;20535;-60
2023/04/22 08:47:31;;;;;;;37.60;9.65;;;22.40;34.60;;;;;;5068587;28;20187;-60
2023/04/22 08:50:00;;;;;;;44.17;10.52;;;22.40;37.40;;;;;;5067448;28;20586;-58
2023/04/22 08:52:27;;;;;;;62.60;12.30;;;22.30;36.40;;;;;;5068579;28;20102;-59
2023/04/22 08:54:53;;;;;;;67.10;12.73;;;22.20;35.40;;;;;;5068447;28;20440;-58
2023/04/22 08:57:20;;;;;;;52.80;11.82;;;22.20;35.40;;;;;;5073311;28;20090;-59
2023/04/22 08:59:47;;;;;;;52.17;12.23;;;22.20;35.40;;;;;;5066660;28;20076;-60
2023/04/22 09:02:18;;;;;;;54.60;12.07;;;22.10;36.80;;;;;;5069185;28;20079;-59
2023/04/22 09:04:47;;;;;;;43.63;11.73;;;22.10;36.90;;;;;;5068710;28;20092;-59
2023/04/22 09:07:21;;;;;;;48.72;12.35;;;22.00;36.70;;;;;;5068143;28;20414;-57
2023/04/22 09:09:49;;;;;;;51.58;12.27;;;22.00;36.60;;;;;;5068274;28;20074;-60
2023/04/22 09:12:17;;;;;;;54.47;13.73;;;22.00;38.10;;;;;;5067493;28;20076;-60
2023/04/22 09:14:44;;;;;;;50.17;11.45;;;22.00;38.20;;;;;;5066050;28;20071;-59
2023/04/22 09:17:14;;;;;;;50.25;13.18;;;22.00;37.20;;;;;;5068525;28;20102;-61
2023/04/22 09:19:40;;;;;;;50.78;12.63;;;21.90;37.70;;;;;;5071407;28;20083;-59
2023/04/22 09:22:13;;;;;;;58.55;15.82;;;21.90;37.70;;;;;;5071593;28;20095;-59
2023/04/22 09:24:52;;;;;;;78.57;17.67;;;21.70;37.70;;;;;;5072712;28;20072;-59
2023/04/22 09:27:22;;;;;;;64.68;15.32;;;21.70;37.60;;;;;;5070677;28;20556;-60
2023/04/22 09:29:50;;;;;;;53.00;16.05;;;21.70;37.90;;;;;;5069968;28;20524;-59
2023/04/22 09:32:17;;;;;;;61.35;15.98;;;21.60;37.90;;;;;;5073144;28;20071;-60
2023/04/22 09:34:52;;;;;;;49.90;15.18;;;21.60;38.90;;;;;;5070893;28;20067;-63
2023/04/22 09:37:26;;;;;;;56.78;15.27;;;21.60;38.30;;;;;;5071000;28;20081;-59
2023/04/22 09:39:53;;;;;;;48.10;12.95;;;21.60;38.50;;;;;;5071771;28;20141;-59
2023/04/22 09:42:20;;;;;;;58.25;11.10;;;21.50;38.50;;;;;;5071286;28;20083;-59
2023/04/22 09:44:51;;;;;;;41.75;9.30;;;21.60;38.40;;;;;;5074085;28;20143;-59
2023/04/22 09:47:22;;;;;;;30.27;8.30;;;21.50;38.80;;;;;;5071837;28;20135;-59
2023/04/22 09:49:49;;;;;;;30.08;8.23;;;21.60;38.70;;;;;;5069471;28;20102;-59
2023/04/22 09:52:28;;;;;;;27.13;7.45;;;21.60;38.50;;;;;;5070813;28;20141;-59
2023/04/22 09:54:54;;;;;;;23.48;6.72;;;21.60;38.70;;;;;;5070405;28;20068;-60
2023/04/22 09:57:21;;;;;;;33.63;6.60;;;21.50;38.90;;;;;;5071960;28;20080;-60
2023/04/22 09:59:51;;;;;;;33.88;7.57;;;21.50;38.90;;;;;;5071978;28;20079;-61
2023/04/22 10:02:17;;;;;;;30.52;6.85;;;21.50;39.00;;;;;;5070158;28;20613;-57
2023/04/22 10:04:46;;;;;;;25.20;6.15;;;21.50;39.50;;;;;;5071708;28;20158;-58
2023/04/22 10:07:14;;;;;;;22.73;5.93;;;21.30;39.70;;;;;;5070624;28;20179;-59
2023/04/22 10:09:40;;;;;;;24.40;5.60;;;21.30;39.50;;;;;;5070349;28;20075;-61
2023/04/22 10:12:07;;;;;;;30.30;6.10;;;21.20;39.50;;;;;;5071575;28;20089;-60
2023/04/22 10:14:33;;;;;;;27.20;5.68;;;21.30;39.60;;;;;;5070309;28;20092;-59
2023/04/22 10:17:02;;;;;;;32.45;5.60;;;21.30;40.00;;;;;;5070411;28;20507;-58
2023/04/22 10:19:28;;;;;;;20.20;4.68;;;21.20;40.60;;;;;;5070497;28;20075;-60
2023/04/22 10:21:58;;;;;;;21.55;3.72;;;21.20;39.70;;;;;;5071596;28;20111;-59
2023/04/22 10:24:33;;;;;;;17.33;3.63;;;21.30;38.10;;;;;;5069953;28;20425;-59
2023/04/22 10:27:05;;;;;;;10.80;3.33;;;21.40;37.40;;;;;;5070348;28;20082;-60
2023/04/22 10:29:41;;;;;;;14.57;3.40;;;21.50;37.00;;;;;;5069928;28;20062;-58
2023/04/22 10:32:16;;;;;;;21.95;3.38;;;21.70;36.70;;;;;;5070657;28;20064;-58
2023/04/22 10:34:47;;;;;;;16.15;3.17;;;21.80;36.50;;;;;;5070594;28;20102;-55
2023/04/22 10:37:18;;;;;;;11.50;2.95;;;21.90;36.30;;;;;;5069042;28;20703;-59
2023/04/22 10:40:15;;;;;;;16.42;3.25;;;22.00;35.90;;;;;;5071313;28;20103;-59
2023/04/22 10:42:46;;;;;;;12.37;3.43;;;22.00;36.20;;;;;;5070852;28;20088;-60
2023/04/22 10:45:14;;;;;;;12.10;3.10;;;22.00;35.70;;;;;;5070586;28;20070;-59
2023/04/22 10:47:42;;;;;;;13.80;2.90;;;22.00;35.90;;;;;;5070293;28;20153;-59
2023/04/22 10:50:30;;;;;;;14.55;3.47;;;22.00;36.20;;;;;;5069741;28;20114;-57
2023/04/22 10:53:01;;;;;;;14.52;3.40;;;22.00;36.20;;;;;;5070672;28;20141;-61
2023/04/22 10:55:49;;;;;;;13.52;2.92;;;22.10;35.50;;;;;;5070437;28;20539;-59
2023/04/22 10:58:24;;;;;;;15.88;3.63;;;22.10;35.50;;;;;;5071074;28;20134;-57
2023/04/22 11:00:58;;;;;;;15.30;2.95;;;22.10;35.00;;;;;;5069533;28;20082;-60
2023/04/22 11:03:27;;;;;;;16.83;3.50;;;22.00;34.80;;;;;;5070421;28;20114;-59
2023/04/22 11:06:16;;;;;;;13.75;2.90;;;22.10;35.30;;;;;;5069483;28;20088;-59
2023/04/22 11:08:47;;;;;;;11.95;3.10;;;22.00;35.00;;;;;;5070040;28;20072;-59
2023/04/22 11:11:17;;;;;;;11.23;2.60;;;22.10;35.10;;;;;;5069975;28;20163;-58
2023/04/22 11:13:44;;;;;;;14.98;2.80;;;22.10;33.80;;;;;;5069002;28;20527;-57
2023/04/22 11:16:10;;;;;;;14.40;3.28;;;22.10;33.50;;;;;;5070034;28;20086;-58
2023/04/22 11:18:37;;;;;;;10.30;2.95;;;22.10;33.80;;;;;;5070902;28;20148;-59
2023/04/22 11:21:07;;;;;;;10.95;3.17;;;22.10;33.70;;;;;;5069892;28;20083;-59
2023/04/22 11:23:34;;;;;;;18.02;3.75;;;22.10;33.60;;;;;;5070051;28;20643;-59
2023/04/22 11:26:03;;;;;;;19.50;4.10;;;22.10;33.30;;;;;;5067487;28;20121;-60
2023/04/22 11:28:30;;;;;;;22.50;3.88;;;22.10;33.70;;;;;;5070953;28;20159;-58
2023/04/22 11:31:09;;;;;;;11.48;3.15;;;22.10;34.00;;;;;;5069295;28;20192;-58
2023/04/22 11:33:37;;;;;;;8.77;3.05;;;22.00;35.00;;;;;;5068929;28;20084;-56
2023/04/22 11:36:04;;;;;;;20.48;3.17;;;21.90;34.90;;;;;;5069714;28;20167;-58
2023/04/22 11:38:31;;;;;;;22.77;4.10;;;21.90;35.00;;;;;;5068742;28;20088;-58
2023/04/22 11:40:58;;;;;;;17.27;3.38;;;21.90;35.10;;;;;;5069428;28;20068;-58
2023/04/22 11:43:25;;;;;;;13.75;3.13;;;21.80;35.40;;;;;;5068515;28;20080;-58
2023/04/22 11:45:54;;;;;;;17.20;4.32;;;21.80;35.80;;;;;;5069720;28;20090;-58
2023/04/22 11:48:20;;;;;;;14.70;3.47;;;21.70;36.20;;;;;;5074054;28;20103;-59
2023/04/22 11:50:47;;;;;;;18.20;4.15;;;21.70;36.60;;;;;;5068431;28;20080;-58
2023/04/22 11:53:22;;;;;;;24.92;4.88;;;21.70;37.00;;;;;;5068232;28;20607;-60
2023/04/22 11:55:50;;;;;;;21.08;5.13;;;21.60;36.80;;;;;;5068100;28;20581;-57
2023/04/22 11:58:25;;;;;;;18.92;4.70;;;21.60;36.70;;;;;;5069358;28;20088;-59
2023/04/22 12:00:53;;;;;;;29.30;5.60;;;21.50;36.80;;;;;;5068839;28;20535;-59
2023/04/22 12:03:20;;;;;;;17.98;5.65;;;21.50;38.70;;;;;;5070118;28;20513;-60
2023/04/22 12:06:00;;;;;;;16.80;6.18;;;21.40;39.00;;;;;;5068720;28;20182;-62
2023/04/22 12:08:39;;;;;;;24.48;5.80;;;21.30;38.80;;;;;;5067227;28;20599;-58
2023/04/22 12:11:09;;;;;;;31.13;6.57;;;21.20;38.40;;;;;;5068104;28;20080;-60
2023/04/22 12:13:41;;;;;;;29.70;5.72;;;21.10;38.40;;;;;;5069131;28;20554;-58
2023/04/22 12:16:12;;;;;;;19.80;4.95;;;21.00;40.30;;;;;;5067934;28;20084;-59
2023/04/22 12:18:54;;;;;;;29.25;6.35;;;20.80;40.30;;;;;;5069487;28;20076;-58
2023/04/22 12:21:27;;;;;;;29.67;7.15;;;20.70;41.00;;;;;;5069756;28;20165;-58
2023/04/22 12:24:09;;;;;;;32.45;6.90;;;20.60;40.90;;;;;;5067612;28;20080;-59
2023/04/22 12:26:39;;;;;;;33.13;7.75;;;20.60;41.00;;;;;;5068475;28;20195;-59
2023/04/22 12:29:05;;;;;;;33.00;8.05;;;20.60;41.30;;;;;;5068395;28;20072;-59
2023/04/22 12:31:32;;;;;;;30.98;7.45;;;20.60;41.40;;;;;;5068922;28;20072;-59
2023/04/22 12:33:59;;;;;;;30.48;8.02;;;20.60;41.40;;;;;;5068122;28;20132;-60
2023/04/22 12:36:25;;;;;;;31.38;8.18;;;20.50;42.30;;;;;;5068116;28;20071;-59